sensor_id;sensor_type;location;lat;lon;timestamp;P1;durP1;ratioP1;P2;durP2;ratioP2
25359;SDS011;13311;51.386;0.016;2022-08-21T00:03:43;10.40;;;3.85;;
25359;SDS011;13311;51.386;0.016;2022-08-21T00:08:44;11.55;;;3.20;;
25359;SDS011;13311;51.386;0.016;2022-08-21T00:13:45;9.93;;;4.25;;
25359;SDS011;13311;51.386;0.016;2022-08-21T00:18:46;16.52;;;3.50;;
25359;SDS011;13311;51.386;0.016;2022-08-21T00:23:47;11.75;;;3.58;;
25359;SDS011;13311;51.386;0.016;2022-08-21T00:28:48;16.00;;;3.53;;
25359;SDS011;13311;51.386;0.016;2022-08-21T00:33:48;12.00;;;3.67;;
25359;SDS011;13311;51.386;0.016;2022-08-21T00:38:49;13.00;;;3.85;;
25359;SDS011;13311;51.386;0.016;2022-08-21T00:43:50;15.15;;;3.97;;
25359;SDS011;13311;51.386;0.016;2022-08-21T00:48:51;8.40;;;2.65;;
25359;SDS011;13311;51.386;0.016;2022-08-21T00:53:53;13.13;;;3.30;;
25359;SDS011;13311;51.386;0.016;2022-08-21T00:58:57;12.98;;;3.42;;
25359;SDS011;13311;51.386;0.016;2022-08-21T01:04:00;11.05;;;3.70;;
25359;SDS011;13311;51.386;0.016;2022-08-21T01:09:02;9.52;;;3.20;;
25359;SDS011;13311;51.386;0.016;2022-08-21T01:14:03;10.40;;;3.00;;
25359;SDS011;13311;51.386;0.016;2022-08-21T01:19:04;10.77;;;2.97;;
25359;SDS011;13311;51.386;0.016;2022-08-21T01:24:07;9.77;;;3.22;;
25359;SDS011;13311;51.386;0.016;2022-08-21T01:34:35;13.05;;;2.80;;
25359;SDS011;13311;51.386;0.016;2022-08-21T01:39:40;14.52;;;3.47;;
25359;SDS011;13311;51.386;0.016;2022-08-21T01:44:43;15.43;;;3.15;;
25359;SDS011;13311;51.386;0.016;2022-08-21T01:49:44;9.07;;;3.10;;
25359;SDS011;13311;51.386;0.016;2022-08-21T01:54:45;11.77;;;2.92;;
25359;SDS011;13311;51.386;0.016;2022-08-21T01:59:46;14.75;;;3.40;;
25359;SDS011;13311;51.386;0.016;2022-08-21T02:04:47;9.68;;;3.05;;
25359;SDS011;13311;51.386;0.016;2022-08-21T02:09:48;9.38;;;3.08;;
25359;SDS011;13311;51.386;0.016;2022-08-21T02:14:49;9.90;;;3.25;;
25359;SDS011;13311;51.386;0.016;2022-08-21T02:19:49;12.02;;;3.10;;
25359;SDS011;13311;51.386;0.016;2022-08-21T02:24:50;13.45;;;3.80;;
25359;SDS011;13311;51.386;0.016;2022-08-21T02:29:51;9.60;;;3.13;;
25359;SDS011;13311;51.386;0.016;2022-08-21T02:34:52;8.82;;;2.90;;
25359;SDS011;13311;51.386;0.016;2022-08-21T02:39:53;8.50;;;2.80;;
25359;SDS011;13311;51.386;0.016;2022-08-21T02:44:53;14.55;;;3.75;;
25359;SDS011;13311;51.386;0.016;2022-08-21T02:49:54;16.77;;;3.70;;
25359;SDS011;13311;51.386;0.016;2022-08-21T02:54:55;9.52;;;2.55;;
25359;SDS011;13311;51.386;0.016;2022-08-21T02:59:56;11.63;;;3.03;;
25359;SDS011;13311;51.386;0.016;2022-08-21T03:04:57;8.63;;;2.80;;
25359;SDS011;13311;51.386;0.016;2022-08-21T03:09:57;13.10;;;3.22;;
25359;SDS011;13311;51.386;0.016;2022-08-21T03:14:58;10.93;;;2.92;;
25359;SDS011;13311;51.386;0.016;2022-08-21T03:19:59;9.80;;;2.97;;
25359;SDS011;13311;51.386;0.016;2022-08-21T03:25:00;11.02;;;3.15;;
25359;SDS011;13311;51.386;0.016;2022-08-21T03:30:03;7.07;;;2.45;;
25359;SDS011;13311;51.386;0.016;2022-08-21T03:35:06;15.77;;;3.85;;
25359;SDS011;13311;51.386;0.016;2022-08-21T03:40:08;8.90;;;2.53;;
25359;SDS011;13311;51.386;0.016;2022-08-21T03:45:18;14.80;;;2.92;;
25359;SDS011;13311;51.386;0.016;2022-08-21T03:50:19;11.90;;;3.22;;
25359;SDS011;13311;51.386;0.016;2022-08-21T03:55:20;12.00;;;3.20;;
25359;SDS011;13311;51.386;0.016;2022-08-21T04:00:23;9.90;;;3.10;;
25359;SDS011;13311;51.386;0.016;2022-08-21T04:05:24;12.48;;;4.60;;
25359;SDS011;13311;51.386;0.016;2022-08-21T04:10:29;11.48;;;3.88;;
25359;SDS011;13311;51.386;0.016;2022-08-21T04:15:34;9.43;;;3.72;;
25359;SDS011;13311;51.386;0.016;2022-08-21T04:20:35;15.75;;;3.15;;
25359;SDS011;13311;51.386;0.016;2022-08-21T04:25:36;9.45;;;3.08;;
25359;SDS011;13311;51.386;0.016;2022-08-21T04:30:37;10.10;;;3.03;;
25359;SDS011;13311;51.386;0.016;2022-08-21T04:35:38;10.27;;;3.15;;
25359;SDS011;13311;51.386;0.016;2022-08-21T04:40:39;14.38;;;3.60;;
25359;SDS011;13311;51.386;0.016;2022-08-21T04:45:41;12.77;;;3.40;;
25359;SDS011;13311;51.386;0.016;2022-08-21T04:56:47;10.95;;;3.08;;
25359;SDS011;13311;51.386;0.016;2022-08-21T05:01:43;8.88;;;3.00;;
25359;SDS011;13311;51.386;0.016;2022-08-21T05:06:45;9.25;;;3.38;;
25359;SDS011;13311;51.386;0.016;2022-08-21T05:11:48;17.90;;;3.88;;
25359;SDS011;13311;51.386;0.016;2022-08-21T05:16:51;8.77;;;3.17;;
25359;SDS011;13311;51.386;0.016;2022-08-21T05:21:52;13.15;;;3.25;;
25359;SDS011;13311;51.386;0.016;2022-08-21T05:26:53;9.27;;;3.20;;
25359;SDS011;13311;51.386;0.016;2022-08-21T05:31:53;8.85;;;3.20;;
25359;SDS011;13311;51.386;0.016;2022-08-21T05:36:54;8.40;;;3.10;;
25359;SDS011;13311;51.386;0.016;2022-08-21T05:41:55;8.15;;;3.92;;
25359;SDS011;13311;51.386;0.016;2022-08-21T05:47:02;10.82;;;3.00;;
25359;SDS011;13311;51.386;0.016;2022-08-21T05:52:08;12.38;;;2.88;;
25359;SDS011;13311;51.386;0.016;2022-08-21T05:57:09;17.30;;;3.13;;
25359;SDS011;13311;51.386;0.016;2022-08-21T06:02:10;12.60;;;3.53;;
25359;SDS011;13311;51.386;0.016;2022-08-21T06:07:11;16.05;;;3.78;;
25359;SDS011;13311;51.386;0.016;2022-08-21T06:12:12;8.38;;;3.28;;
25359;SDS011;13311;51.386;0.016;2022-08-21T06:17:13;9.30;;;3.42;;
25359;SDS011;13311;51.386;0.016;2022-08-21T06:22:15;7.97;;;3.08;;
25359;SDS011;13311;51.386;0.016;2022-08-21T06:27:16;12.27;;;2.90;;
25359;SDS011;13311;51.386;0.016;2022-08-21T06:32:17;8.50;;;2.95;;
25359;SDS011;13311;51.386;0.016;2022-08-21T06:37:18;11.75;;;3.33;;
25359;SDS011;13311;51.386;0.016;2022-08-21T06:42:19;10.35;;;2.50;;
25359;SDS011;13311;51.386;0.016;2022-08-21T06:47:19;11.57;;;2.92;;
25359;SDS011;13311;51.386;0.016;2022-08-21T06:52:20;10.85;;;2.45;;
25359;SDS011;13311;51.386;0.016;2022-08-21T06:57:21;8.55;;;2.53;;
25359;SDS011;13311;51.386;0.016;2022-08-21T07:02:22;11.43;;;3.28;;
25359;SDS011;13311;51.386;0.016;2022-08-21T07:07:22;11.15;;;2.70;;
25359;SDS011;13311;51.386;0.016;2022-08-21T07:12:23;11.38;;;3.05;;
25359;SDS011;13311;51.386;0.016;2022-08-21T07:17:25;9.88;;;2.28;;
25359;SDS011;13311;51.386;0.016;2022-08-21T07:22:26;10.48;;;3.35;;
25359;SDS011;13311;51.386;0.016;2022-08-21T07:27:27;4.45;;;2.00;;
25359;SDS011;13311;51.386;0.016;2022-08-21T07:32:28;9.68;;;1.83;;
25359;SDS011;13311;51.386;0.016;2022-08-21T07:37:29;6.18;;;2.42;;
25359;SDS011;13311;51.386;0.016;2022-08-21T07:42:30;9.55;;;2.47;;
25359;SDS011;13311;51.386;0.016;2022-08-21T07:47:31;4.78;;;1.85;;
25359;SDS011;13311;51.386;0.016;2022-08-21T07:52:33;15.00;;;2.35;;
25359;SDS011;13311;51.386;0.016;2022-08-21T07:57:34;6.15;;;2.08;;
25359;SDS011;13311;51.386;0.016;2022-08-21T08:02:34;6.72;;;1.80;;
25359;SDS011;13311;51.386;0.016;2022-08-21T08:07:35;6.45;;;2.30;;
25359;SDS011;13311;51.386;0.016;2022-08-21T08:12:38;9.00;;;2.30;;
25359;SDS011;13311;51.386;0.016;2022-08-21T08:17:41;7.95;;;2.05;;
25359;SDS011;13311;51.386;0.016;2022-08-21T08:22:42;7.03;;;2.00;;
25359;SDS011;13311;51.386;0.016;2022-08-21T08:27:43;4.45;;;1.50;;
25359;SDS011;13311;51.386;0.016;2022-08-21T08:32:43;5.15;;;1.70;;
25359;SDS011;13311;51.386;0.016;2022-08-21T08:37:45;5.38;;;1.60;;
25359;SDS011;13311;51.386;0.016;2022-08-21T08:42:46;3.72;;;1.38;;
25359;SDS011;13311;51.386;0.016;2022-08-21T08:47:49;2.40;;;1.00;;
25359;SDS011;13311;51.386;0.016;2022-08-21T08:53:07;7.07;;;1.98;;
25359;SDS011;13311;51.386;0.016;2022-08-21T08:58:17;5.20;;;1.70;;
25359;SDS011;13311;51.386;0.016;2022-08-21T09:03:27;7.30;;;2.30;;
25359;SDS011;13311;51.386;0.016;2022-08-21T09:14:14;6.90;;;2.40;;
25359;SDS011;13311;51.386;0.016;2022-08-21T09:25:10;3.83;;;1.80;;
25359;SDS011;13311;51.386;0.016;2022-08-21T09:30:30;4.72;;;1.90;;
25359;SDS011;13311;51.386;0.016;2022-08-21T09:35:32;3.80;;;1.50;;
25359;SDS011;13311;51.386;0.016;2022-08-21T09:45:47;4.10;;;1.20;;
25359;SDS011;13311;51.386;0.016;2022-08-21T09:50:50;5.18;;;1.77;;
25359;SDS011;13311;51.386;0.016;2022-08-21T10:01:16;4.25;;;1.50;;
25359;SDS011;13311;51.386;0.016;2022-08-21T10:06:23;4.13;;;1.30;;
25359;SDS011;13311;51.386;0.016;2022-08-21T10:11:27;4.80;;;1.37;;
25359;SDS011;13311;51.386;0.016;2022-08-21T10:16:32;5.68;;;1.77;;
25359;SDS011;13311;51.386;0.016;2022-08-21T10:21:59;4.50;;;1.73;;
25359;SDS011;13311;51.386;0.016;2022-08-21T10:27:22;8.05;;;2.13;;
25359;SDS011;13311;51.386;0.016;2022-08-21T10:38:33;5.32;;;1.80;;
25359;SDS011;13311;51.386;0.016;2022-08-21T10:59:33;7.15;;;1.50;;
25359;SDS011;13311;51.386;0.016;2022-08-21T11:04:52;4.15;;;1.25;;
25359;SDS011;13311;51.386;0.016;2022-08-21T11:10:19;3.30;;;1.08;;
25359;SDS011;13311;51.386;0.016;2022-08-21T11:37:08;2.17;;;1.10;;
25359;SDS011;13311;51.386;0.016;2022-08-21T11:53:01;5.63;;;1.90;;
25359;SDS011;13311;51.386;0.016;2022-08-21T12:03:13;4.25;;;1.30;;
25359;SDS011;13311;51.386;0.016;2022-08-21T12:08:27;4.35;;;1.40;;
25359;SDS011;13311;51.386;0.016;2022-08-21T12:13:37;2.33;;;1.15;;
25359;SDS011;13311;51.386;0.016;2022-08-21T12:18:41;8.70;;;2.03;;
25359;SDS011;13311;51.386;0.016;2022-08-21T12:23:45;5.22;;;1.67;;
25359;SDS011;13311;51.386;0.016;2022-08-21T12:29:33;5.30;;;1.42;;
25359;SDS011;13311;51.386;0.016;2022-08-21T12:34:37;5.15;;;1.27;;
25359;SDS011;13311;51.386;0.016;2022-08-21T12:39:51;3.08;;;1.42;;
25359;SDS011;13311;51.386;0.016;2022-08-21T12:44:59;5.25;;;1.88;;
25359;SDS011;13311;51.386;0.016;2022-08-21T12:50:51;2.17;;;0.77;;
25359;SDS011;13311;51.386;0.016;2022-08-21T12:55:51;4.80;;;1.45;;
25359;SDS011;13311;51.386;0.016;2022-08-21T13:00:57;5.63;;;1.95;;
25359;SDS011;13311;51.386;0.016;2022-08-21T13:06:24;3.25;;;1.38;;
25359;SDS011;13311;51.386;0.016;2022-08-21T13:11:29;3.30;;;1.70;;
25359;SDS011;13311;51.386;0.016;2022-08-21T13:16:32;4.80;;;1.67;;
25359;SDS011;13311;51.386;0.016;2022-08-21T13:21:34;5.57;;;2.28;;
25359;SDS011;13311;51.386;0.016;2022-08-21T13:26:40;5.85;;;2.28;;
25359;SDS011;13311;51.386;0.016;2022-08-21T13:31:42;5.50;;;2.75;;
25359;SDS011;13311;51.386;0.016;2022-08-21T13:36:51;2.17;;;1.30;;
25359;SDS011;13311;51.386;0.016;2022-08-21T13:41:58;6.05;;;2.80;;
25359;SDS011;13311;51.386;0.016;2022-08-21T13:47:03;8.13;;;3.42;;
25359;SDS011;13311;51.386;0.016;2022-08-21T13:52:13;6.05;;;1.88;;
25359;SDS011;13311;51.386;0.016;2022-08-21T13:57:18;7.80;;;2.67;;
25359;SDS011;13311;51.386;0.016;2022-08-21T14:02:37;4.93;;;1.52;;
25359;SDS011;13311;51.386;0.016;2022-08-21T14:07:41;7.50;;;2.67;;
25359;SDS011;13311;51.386;0.016;2022-08-21T14:12:46;6.05;;;2.50;;
25359;SDS011;13311;51.386;0.016;2022-08-21T14:17:52;3.38;;;1.23;;
25359;SDS011;13311;51.386;0.016;2022-08-21T14:22:53;5.22;;;2.10;;
25359;SDS011;13311;51.386;0.016;2022-08-21T14:33:25;5.88;;;2.35;;
25359;SDS011;13311;51.386;0.016;2022-08-21T14:38:32;3.75;;;1.88;;
25359;SDS011;13311;51.386;0.016;2022-08-21T14:43:37;6.30;;;2.15;;
25359;SDS011;13311;51.386;0.016;2022-08-21T14:48:38;4.10;;;1.85;;
25359;SDS011;13311;51.386;0.016;2022-08-21T14:53:39;4.47;;;2.47;;
25359;SDS011;13311;51.386;0.016;2022-08-21T14:58:41;3.78;;;2.47;;
25359;SDS011;13311;51.386;0.016;2022-08-21T15:03:45;11.82;;;5.18;;
25359;SDS011;13311;51.386;0.016;2022-08-21T15:08:48;7.53;;;3.10;;
25359;SDS011;13311;51.386;0.016;2022-08-21T15:13:51;5.13;;;2.72;;
25359;SDS011;13311;51.386;0.016;2022-08-21T15:18:57;9.15;;;3.70;;
25359;SDS011;13311;51.386;0.016;2022-08-21T15:23:58;6.25;;;2.65;;
25359;SDS011;13311;51.386;0.016;2022-08-21T15:28:59;4.30;;;2.85;;
25359;SDS011;13311;51.386;0.016;2022-08-21T15:34:00;8.73;;;3.40;;
25359;SDS011;13311;51.386;0.016;2022-08-21T15:39:02;6.38;;;2.63;;
25359;SDS011;13311;51.386;0.016;2022-08-21T15:44:02;4.95;;;2.70;;
25359;SDS011;13311;51.386;0.016;2022-08-21T15:49:03;5.78;;;2.85;;
25359;SDS011;13311;51.386;0.016;2022-08-21T15:54:05;7.57;;;3.30;;
25359;SDS011;13311;51.386;0.016;2022-08-21T15:59:16;6.68;;;2.95;;
25359;SDS011;13311;51.386;0.016;2022-08-21T16:04:23;5.70;;;2.55;;
25359;SDS011;13311;51.386;0.016;2022-08-21T16:09:26;4.13;;;2.67;;
25359;SDS011;13311;51.386;0.016;2022-08-21T16:14:28;8.48;;;3.42;;
25359;SDS011;13311;51.386;0.016;2022-08-21T16:19:30;4.97;;;3.13;;
25359;SDS011;13311;51.386;0.016;2022-08-21T16:24:31;5.63;;;2.72;;
25359;SDS011;13311;51.386;0.016;2022-08-21T16:29:33;8.43;;;3.45;;
25359;SDS011;13311;51.386;0.016;2022-08-21T16:34:36;6.75;;;2.95;;
25359;SDS011;13311;51.386;0.016;2022-08-21T16:39:44;5.85;;;2.30;;
25359;SDS011;13311;51.386;0.016;2022-08-21T16:44:45;10.88;;;3.03;;
25359;SDS011;13311;51.386;0.016;2022-08-21T16:49:46;6.35;;;2.72;;
25359;SDS011;13311;51.386;0.016;2022-08-21T16:54:47;6.57;;;2.58;;
25359;SDS011;13311;51.386;0.016;2022-08-21T16:59:48;6.25;;;2.53;;
25359;SDS011;13311;51.386;0.016;2022-08-21T17:04:49;7.90;;;3.03;;
25359;SDS011;13311;51.386;0.016;2022-08-21T17:09:50;11.63;;;3.03;;
25359;SDS011;13311;51.386;0.016;2022-08-21T17:14:51;8.20;;;3.83;;
25359;SDS011;13311;51.386;0.016;2022-08-21T17:19:52;8.43;;;3.38;;
25359;SDS011;13311;51.386;0.016;2022-08-21T17:24:52;8.82;;;2.78;;
25359;SDS011;13311;51.386;0.016;2022-08-21T17:29:54;8.85;;;3.30;;
25359;SDS011;13311;51.386;0.016;2022-08-21T17:34:55;10.35;;;3.63;;
25359;SDS011;13311;51.386;0.016;2022-08-21T17:39:56;13.50;;;2.65;;
25359;SDS011;13311;51.386;0.016;2022-08-21T17:44:57;6.07;;;2.10;;
25359;SDS011;13311;51.386;0.016;2022-08-21T17:49:58;10.90;;;3.13;;
25359;SDS011;13311;51.386;0.016;2022-08-21T17:54:59;6.50;;;2.72;;
25359;SDS011;13311;51.386;0.016;2022-08-21T18:00:00;10.63;;;3.25;;
25359;SDS011;13311;51.386;0.016;2022-08-21T18:05:04;8.27;;;2.80;;
25359;SDS011;13311;51.386;0.016;2022-08-21T18:10:08;10.68;;;3.05;;
25359;SDS011;13311;51.386;0.016;2022-08-21T18:15:12;9.63;;;3.25;;
25359;SDS011;13311;51.386;0.016;2022-08-21T18:20:18;14.02;;;4.20;;
25359;SDS011;13311;51.386;0.016;2022-08-21T18:25:22;12.23;;;2.95;;
25359;SDS011;13311;51.386;0.016;2022-08-21T18:30:23;8.93;;;2.67;;
25359;SDS011;13311;51.386;0.016;2022-08-21T18:35:24;10.68;;;3.13;;
25359;SDS011;13311;51.386;0.016;2022-08-21T18:40:25;8.85;;;3.00;;
25359;SDS011;13311;51.386;0.016;2022-08-21T18:45:25;9.88;;;3.00;;
25359;SDS011;13311;51.386;0.016;2022-08-21T18:50:26;5.63;;;2.10;;
25359;SDS011;13311;51.386;0.016;2022-08-21T18:55:28;9.30;;;2.28;;
25359;SDS011;13311;51.386;0.016;2022-08-21T19:00:31;8.35;;;2.47;;
25359;SDS011;13311;51.386;0.016;2022-08-21T19:05:36;8.60;;;2.67;;
25359;SDS011;13311;51.386;0.016;2022-08-21T19:10:40;11.38;;;2.75;;
25359;SDS011;13311;51.386;0.016;2022-08-21T19:15:44;10.38;;;2.63;;
25359;SDS011;13311;51.386;0.016;2022-08-21T19:20:49;10.57;;;3.08;;
25359;SDS011;13311;51.386;0.016;2022-08-21T19:25:51;12.00;;;3.25;;
25359;SDS011;13311;51.386;0.016;2022-08-21T19:30:58;9.50;;;2.92;;
25359;SDS011;13311;51.386;0.016;2022-08-21T19:36:05;10.27;;;4.00;;
25359;SDS011;13311;51.386;0.016;2022-08-21T19:41:08;8.88;;;2.70;;
25359;SDS011;13311;51.386;0.016;2022-08-21T19:46:12;6.63;;;2.50;;
25359;SDS011;13311;51.386;0.016;2022-08-21T19:51:23;13.48;;;3.05;;
25359;SDS011;13311;51.386;0.016;2022-08-21T19:56:26;7.63;;;2.63;;
25359;SDS011;13311;51.386;0.016;2022-08-21T20:01:29;16.67;;;3.10;;
25359;SDS011;13311;51.386;0.016;2022-08-21T20:06:30;11.45;;;2.90;;
25359;SDS011;13311;51.386;0.016;2022-08-21T20:11:33;13.23;;;7.07;;
25359;SDS011;13311;51.386;0.016;2022-08-21T20:16:40;13.95;;;3.53;;
25359;SDS011;13311;51.386;0.016;2022-08-21T20:21:41;6.43;;;2.80;;
25359;SDS011;13311;51.386;0.016;2022-08-21T20:26:43;7.53;;;2.90;;
25359;SDS011;13311;51.386;0.016;2022-08-21T20:31:45;6.75;;;2.97;;
25359;SDS011;13311;51.386;0.016;2022-08-21T20:36:46;11.27;;;3.80;;
25359;SDS011;13311;51.386;0.016;2022-08-21T20:41:47;8.95;;;2.65;;
25359;SDS011;13311;51.386;0.016;2022-08-21T20:46:48;7.22;;;2.53;;
25359;SDS011;13311;51.386;0.016;2022-08-21T20:51:49;7.95;;;2.17;;
25359;SDS011;13311;51.386;0.016;2022-08-21T21:18:43;11.32;;;3.60;;
25359;SDS011;13311;51.386;0.016;2022-08-21T21:24:08;8.88;;;2.80;;
25359;SDS011;13311;51.386;0.016;2022-08-21T21:34:42;9.93;;;2.53;;
25359;SDS011;13311;51.386;0.016;2022-08-21T21:45:31;7.28;;;2.90;;
25359;SDS011;13311;51.386;0.016;2022-08-21T21:51:28;10.07;;;3.17;;
25359;SDS011;13311;51.386;0.016;2022-08-21T21:57:46;14.65;;;3.38;;
25359;SDS011;13311;51.386;0.016;2022-08-21T22:13:53;10.82;;;3.17;;
25359;SDS011;13311;51.386;0.016;2022-08-21T22:19:05;8.48;;;2.80;;
25359;SDS011;13311;51.386;0.016;2022-08-21T22:24:24;15.70;;;3.67;;
25359;SDS011;13311;51.386;0.016;2022-08-21T22:29:40;15.02;;;4.47;;
25359;SDS011;13311;51.386;0.016;2022-08-21T22:34:54;8.25;;;2.78;;
25359;SDS011;13311;51.386;0.016;2022-08-21T22:40:03;9.80;;;2.80;;
25359;SDS011;13311;51.386;0.016;2022-08-21T22:45:07;10.07;;;2.90;;
25359;SDS011;13311;51.386;0.016;2022-08-21T22:55:44;11.55;;;2.85;;
25359;SDS011;13311;51.386;0.016;2022-08-21T23:06:21;12.27;;;3.10;;
25359;SDS011;13311;51.386;0.016;2022-08-21T23:11:43;6.25;;;2.28;;
25359;SDS011;13311;51.386;0.016;2022-08-21T23:28:04;7.28;;;2.85;;
25359;SDS011;13311;51.386;0.016;2022-08-21T23:33:58;10.63;;;3.15;;
25359;SDS011;13311;51.386;0.016;2022-08-21T23:50:47;11.27;;;2.65;;
